createdAt,value
2017-09-19T00:00:11.449Z,57.46
2017-09-19T00:01:11.143Z,57.28
2017-09-19T00:02:11.482Z,57.28
2017-09-19T00:03:11.503Z,57.37
2017-09-19T00:04:11.523Z,56.89
2017-09-19T00:05:11.531Z,57.18
2017-09-19T00:06:11.231Z,57.37
2017-09-19T00:07:11.577Z,57.46
2017-09-19T00:08:11.586Z,57.46
2017-09-19T00:09:11.609Z,57.37
2017-09-19T00:10:11.301Z,57.46
2017-09-19T00:11:11.321Z,57.65
2017-09-19T00:12:11.342Z,57.65
2017-09-19T00:13:11.358Z,57.85
2017-09-19T00:14:11.374Z,57.75
2017-09-19T00:15:11.713Z,57.75
2017-09-19T00:16:11.411Z,57.85
2017-09-19T00:17:11.754Z,57.65
2017-09-19T00:18:11.771Z,57.85
2017-09-19T00:19:11.791Z,57.85
2017-09-19T00:20:11.483Z,58.04
2017-09-19T00:21:11.871Z,58.04
2017-09-19T00:22:11.517Z,58.23
2017-09-19T00:23:11.858Z,58.14
2017-09-19T00:24:11.880Z,57.94
2017-09-19T00:25:11.577Z,57.28
2017-09-19T00:26:11.910Z,58.14
2017-09-19T00:27:11.603Z,57.75
2017-09-19T00:28:11.944Z,58.23
2017-09-19T00:29:11.967Z,58.14
2017-09-19T00:30:11.657Z,58.51
2017-09-19T00:31:12.000Z,58.51
2017-09-19T00:32:12.014Z,58.42
2017-09-19T00:33:11.710Z,57.94
2017-09-19T00:34:12.053Z,57.94
2017-09-19T00:35:12.069Z,58.61
2017-09-19T00:36:11.765Z,58.23
2017-09-19T00:37:11.785Z,58.51
2017-09-19T00:38:12.121Z,58.23
2017-09-19T00:39:12.139Z,58.51
2017-09-19T00:40:11.840Z,58.14
2017-09-19T00:41:12.177Z,57.94
2017-09-19T00:42:12.192Z,58.9
2017-09-19T00:43:11.886Z,57.85
2017-09-19T00:44:11.908Z,58.61
2017-09-19T00:45:11.924Z,58.61
2017-09-19T00:46:11.942Z,58.8
2017-09-19T00:47:11.958Z,58.7
2017-09-19T00:48:12.296Z,58.51
2017-09-19T00:49:11.998Z,58.61
2017-09-19T00:50:12.013Z,58.48
2017-09-19T00:51:12.355Z,58.61
2017-09-19T00:52:12.371Z,58.58
2017-09-19T00:53:12.067Z,58.58
2017-09-19T00:54:12.407Z,58.29
2017-09-19T00:55:12.099Z,58.48
2017-09-19T00:56:15.358Z,58.58
2017-09-19T00:57:12.459Z,58.97
2017-09-19T00:58:12.155Z,58.29
2017-09-19T00:59:12.501Z,58.58
2017-09-19T01:00:12.519Z,58.39
2017-09-19T01:01:12.222Z,58.68
2017-09-19T01:02:12.547Z,58.97
2017-09-19T01:03:12.241Z,58.87
2017-09-19T01:04:12.261Z,58.77
2017-09-19T01:05:12.278Z,58.77
2017-09-19T01:06:12.300Z,58.97
2017-09-19T01:07:12.312Z,59.06
2017-09-19T01:08:12.333Z,58.77
2017-09-19T01:09:12.675Z,58.87
2017-09-19T01:10:12.365Z,58.87
2017-09-19T01:11:12.385Z,58.87
2017-09-19T01:12:12.399Z,58.87
2017-09-19T01:13:12.740Z,58.77
2017-09-19T01:14:12.438Z,59.34
2017-09-19T01:15:12.455Z,58.97
2017-09-19T01:16:12.798Z,59.25
2017-09-19T01:17:12.814Z,58.97
2017-09-19T01:18:12.825Z,59.25
2017-09-19T01:19:12.525Z,59.25
2017-09-19T01:20:12.541Z,59.53
2017-09-19T01:21:12.881Z,59.63
2017-09-19T01:22:12.893Z,59.25
2017-09-19T01:23:12.919Z,59.25
2017-09-19T01:24:12.935Z,59.25
2017-09-19T01:25:12.945Z,59.25
2017-09-19T01:26:12.646Z,59.92
2017-09-19T01:27:12.986Z,59.63
2017-09-19T01:28:12.676Z,59.53
2017-09-19T01:29:13.018Z,59.53
2017-09-19T01:30:12.714Z,59.34
2017-09-19T01:31:13.058Z,59.44
2017-09-19T01:32:13.069Z,59.53
2017-09-19T01:33:12.765Z,59.73
2017-09-19T01:34:12.781Z,59.44
2017-09-19T01:35:13.121Z,60.02
2017-09-19T01:36:13.137Z,59.63
2017-09-19T01:37:13.161Z,60.02
2017-09-19T01:38:13.170Z,60.02
2017-09-19T01:39:12.871Z,59.82
2017-09-19T01:40:12.887Z,60.02
2017-09-19T01:41:13.223Z,59.92
2017-09-19T01:42:12.921Z,59.92
2017-09-19T01:43:13.266Z,59.82
2017-09-19T01:44:12.957Z,59.63
2017-09-19T01:45:13.291Z,59.82
2017-09-19T01:46:12.986Z,60.3
2017-09-19T01:47:13.333Z,60.02
2017-09-19T01:48:13.350Z,60.11
2017-09-19T01:49:13.366Z,60.11
2017-09-19T01:50:13.384Z,60.11
2017-09-19T01:51:13.396Z,60.3
2017-09-19T01:52:13.524Z,60.02
2017-09-19T01:53:13.109Z,59.82
2017-09-19T01:54:13.490Z,59.92
2017-09-19T01:55:13.479Z,60.11
2017-09-19T01:56:13.488Z,60.11
2017-09-19T01:57:13.180Z,59.89
2017-09-19T01:58:13.637Z,60.17
2017-09-19T01:59:13.625Z,60.11
2017-09-19T02:00:13.651Z,60.11
2017-09-19T02:01:13.867Z,60.21
2017-09-19T02:02:13.763Z,60.27
2017-09-19T02:03:13.285Z,60.08
2017-09-19T02:04:13.670Z,60.08
2017-09-19T02:05:13.675Z,59.89
2017-09-19T02:06:13.450Z,59.99
2017-09-19T02:07:13.347Z,60.08
2017-09-19T02:08:13.773Z,60.17
2017-09-19T02:09:13.770Z,60.36
2017-09-19T02:10:13.780Z,60.46
2017-09-19T02:11:13.811Z,60.55
2017-09-19T02:12:13.815Z,60.46
2017-09-19T02:13:13.477Z,60.75
2017-09-19T02:14:13.854Z,60.55
2017-09-19T02:15:13.809Z,60.84
2017-09-19T02:16:13.612Z,60.55
2017-09-19T02:17:13.844Z,60.65
2017-09-19T02:18:13.629Z,60.84
2017-09-19T02:19:13.641Z,60.75
2017-09-19T02:20:13.649Z,60.46
2017-09-19T02:21:13.915Z,60.46
2017-09-19T02:22:13.931Z,60.55
2017-09-19T02:23:13.945Z,60.65
2017-09-19T02:24:13.960Z,60.65
2017-09-19T02:25:13.979Z,60.84
2017-09-19T02:26:13.993Z,60.84
2017-09-19T02:27:14.016Z,60.75
2017-09-19T02:28:13.800Z,60.84
2017-09-19T02:29:14.054Z,60.75
2017-09-19T02:30:14.065Z,60.84
2017-09-19T02:31:14.092Z,61.04
2017-09-19T02:32:14.098Z,60.84
2017-09-19T02:33:14.111Z,60.84
2017-09-19T02:34:13.808Z,61.04
2017-09-19T02:35:14.150Z,61.04
2017-09-19T02:36:14.170Z,61.04
2017-09-19T02:37:13.859Z,60.94
2017-09-19T02:38:13.879Z,61.13
2017-09-19T02:39:13.894Z,60.65
2017-09-19T02:40:13.907Z,60.75
2017-09-19T02:41:14.249Z,60.65
2017-09-19T02:42:14.275Z,60.65
2017-09-19T02:43:14.306Z,60.94
2017-09-19T02:44:14.302Z,60.55
2017-09-19T02:45:14.318Z,60.84
2017-09-19T02:46:14.336Z,60.65
2017-09-19T02:47:14.358Z,61.41
2017-09-19T02:48:14.364Z,61.04
2017-09-19T02:49:14.061Z,60.75
2017-09-19T02:50:14.409Z,60.75
2017-09-19T02:51:14.418Z,61.32
2017-09-19T02:52:14.433Z,61.13
2017-09-19T02:53:14.488Z,61.13
2017-09-19T02:54:14.474Z,61.13
2017-09-19T02:55:14.164Z,61.41
2017-09-19T02:56:14.505Z,61.41
2017-09-19T02:57:14.519Z,61.32
2017-09-19T02:58:14.539Z,61.13
2017-09-19T02:59:14.556Z,61.41
2017-09-19T03:00:14.570Z,61.32
2017-09-19T03:01:14.584Z,61.04
2017-09-19T03:02:14.281Z,61.32
2017-09-19T03:03:14.621Z,61.04
2017-09-19T03:04:14.312Z,60.94
2017-09-19T03:05:14.337Z,60.94
2017-09-19T03:06:14.676Z,60.94
2017-09-19T03:07:14.369Z,61.13
2017-09-19T03:08:14.711Z,61.22
2017-09-19T03:09:14.397Z,61.13
2017-09-19T03:10:14.416Z,61.13
2017-09-19T03:11:14.431Z,61.41
2017-09-19T03:12:14.454Z,61.13
2017-09-19T03:13:14.782Z,61.89
2017-09-19T03:14:14.483Z,61.51
2017-09-19T03:15:14.831Z,61.8
2017-09-19T03:16:14.841Z,61.51
2017-09-19T03:17:14.852Z,61.6
2017-09-19T03:18:14.874Z,61.7
2017-09-19T03:19:14.566Z,61.7
2017-09-19T03:20:14.578Z,61.41
2017-09-19T03:21:14.597Z,61.51
2017-09-19T03:22:14.937Z,61.41
2017-09-19T03:23:14.953Z,61.32
2017-09-19T03:24:14.966Z,61.6
2017-09-19T03:25:14.987Z,61.96
2017-09-19T03:26:14.679Z,61.99
2017-09-19T03:27:15.020Z,61.7
2017-09-19T03:28:15.037Z,61.8
2017-09-19T03:29:14.732Z,61.57
2017-09-19T03:30:15.076Z,61.76
2017-09-19T03:31:15.088Z,61.76
2017-09-19T03:32:15.100Z,61.7
2017-09-19T03:33:14.799Z,61.57
2017-09-19T03:34:15.141Z,62.08
2017-09-19T03:35:14.832Z,61.86
2017-09-19T03:36:14.873Z,61.96
2017-09-19T03:37:14.862Z,61.86
2017-09-19T03:38:14.881Z,62.05
2017-09-19T03:39:14.897Z,61.8
2017-09-19T03:40:15.240Z,62.24
2017-09-19T03:41:15.263Z,62.65
2017-09-19T03:42:15.273Z,62.52
2017-09-19T03:43:15.368Z,61.99
2017-09-19T03:44:14.982Z,62.05
2017-09-19T03:45:15.324Z,61.86
2017-09-19T03:46:15.012Z,61.96
2017-09-19T03:47:15.352Z,62.91
2017-09-19T03:48:15.043Z,62.05
2017-09-19T03:49:15.392Z,61.86
2017-09-19T03:50:15.401Z,61.96
2017-09-19T03:51:15.417Z,61.76
2017-09-19T03:52:15.443Z,62.91
2017-09-19T03:53:15.128Z,62.81
2017-09-19T03:54:15.473Z,62.91
2017-09-19T03:55:15.167Z,62.34
2017-09-19T03:56:15.503Z,62.81
2017-09-19T03:57:15.196Z,62.62
2017-09-19T03:58:15.537Z,62.52
2017-09-19T03:59:15.551Z,62.62
2017-09-19T04:00:15.564Z,62.34
2017-09-19T04:01:15.590Z,62.62
2017-09-19T04:02:15.281Z,62.81
2017-09-19T04:03:15.619Z,62.62
2017-09-19T04:04:15.640Z,62.34
2017-09-19T04:05:15.655Z,62.24
2017-09-19T04:06:15.347Z,62.72
2017-09-19T04:07:15.681Z,62.81
2017-09-19T04:08:15.702Z,62.91
2017-09-19T04:09:15.723Z,62.72
2017-09-19T04:10:15.411Z,62.91
2017-09-19T04:11:15.429Z,62.62
2017-09-19T04:12:15.441Z,62.62
2017-09-19T04:13:15.785Z,62.52
2017-09-19T04:14:15.807Z,62.72
2017-09-19T04:15:15.825Z,62.43
2017-09-19T04:16:15.838Z,62.52
2017-09-19T04:17:15.525Z,62.24
2017-09-19T04:18:15.541Z,62.34
2017-09-19T04:19:15.879Z,62.91
2017-09-19T04:20:15.895Z,62.34
2017-09-19T04:21:15.913Z,62.52
2017-09-19T04:22:15.927Z,62.72
2017-09-19T04:23:15.955Z,62.81
2017-09-19T04:24:15.960Z,62.62
2017-09-19T04:25:15.982Z,63
2017-09-19T04:26:15.679Z,62.72
2017-09-19T04:27:16.017Z,62.72
2017-09-19T04:28:15.707Z,62.52
2017-09-19T04:29:16.045Z,62.81
2017-09-19T04:30:15.738Z,62.91
2017-09-19T04:31:15.758Z,63
2017-09-19T04:32:15.775Z,62.91
2017-09-19T04:33:16.113Z,62.91
2017-09-19T04:34:16.124Z,62.62
2017-09-19T04:35:15.821Z,63.1
2017-09-19T04:36:15.839Z,63.1
2017-09-19T04:37:16.402Z,62.72
2017-09-19T04:38:16.215Z,63.39
2017-09-19T04:39:16.207Z,63.2
2017-09-19T04:40:16.238Z,62.91
2017-09-19T04:41:16.241Z,63.29
2017-09-19T04:42:15.939Z,63.2
2017-09-19T04:43:16.279Z,63.29
2017-09-19T04:44:15.968Z,63.2
2017-09-19T04:45:15.985Z,63.1
2017-09-19T04:46:16.335Z,63.29
2017-09-19T04:47:16.022Z,63.1
2017-09-19T04:48:16.359Z,63.2
2017-09-19T04:49:16.047Z,63.1
2017-09-19T04:50:16.392Z,63.2
2017-09-19T04:51:16.406Z,63.29
2017-09-19T04:52:16.424Z,63.67
2017-09-19T04:53:16.437Z,63.76
2017-09-19T04:54:16.459Z,63.76
2017-09-19T04:55:16.145Z,63.86
2017-09-19T04:56:16.495Z,63.76
2017-09-19T04:57:16.183Z,63.57
2017-09-19T04:58:16.212Z,63.76
2017-09-19T04:59:16.221Z,63.76
2017-09-19T05:00:16.569Z,63.76
2017-09-19T05:01:16.575Z,63.57
2017-09-19T05:02:16.605Z,63.57
2017-09-19T05:03:16.282Z,63.48
2017-09-19T05:04:16.631Z,64.05
2017-09-19T05:05:16.635Z,63.96
2017-09-19T05:06:16.659Z,63.86
2017-09-19T05:07:16.344Z,63.76
2017-09-19T05:08:16.364Z,63.86
2017-09-19T05:09:16.379Z,63.96
2017-09-19T05:10:16.714Z,63.96
2017-09-19T05:11:16.731Z,63.2
2017-09-19T05:12:16.753Z,63.39
2017-09-19T05:13:16.448Z,63.67
2017-09-19T05:14:16.783Z,63.48
2017-09-19T05:15:16.475Z,63.57
2017-09-19T05:16:16.492Z,63.57
2017-09-19T05:17:16.827Z,63.48
2017-09-19T05:18:16.526Z,63.57
2017-09-19T05:19:16.537Z,63.67
2017-09-19T05:20:16.556Z,64.05
2017-09-19T05:21:16.898Z,64.15
2017-09-19T05:22:16.586Z,63.76
2017-09-19T05:23:16.609Z,63.76
2017-09-19T05:24:17.036Z,63.96
2017-09-19T05:25:16.982Z,63.86
2017-09-19T05:26:16.975Z,64.24
2017-09-19T05:27:17.615Z,64.24
2017-09-19T05:28:16.707Z,63.86
2017-09-19T05:29:16.704Z,64.05
2017-09-19T05:30:17.042Z,64.15
2017-09-19T05:31:17.060Z,64.24
2017-09-19T05:32:17.083Z,64.43
2017-09-19T05:33:17.203Z,64.81
2017-09-19T05:34:17.109Z,64.62
2017-09-19T05:35:16.797Z,64.81
2017-09-19T05:36:16.817Z,64.62
2017-09-19T05:37:17.154Z,64.91
2017-09-19T05:38:16.852Z,65
2017-09-19T05:39:17.189Z,65.1
2017-09-19T05:40:16.878Z,65.2
2017-09-19T05:41:16.892Z,64.62
2017-09-19T05:42:16.993Z,65.39
2017-09-19T05:43:16.933Z,64.81
2017-09-19T05:44:17.376Z,64.81
2017-09-19T05:45:17.283Z,65.1
2017-09-19T05:46:16.985Z,65.29
2017-09-19T05:47:16.992Z,64.43
2017-09-19T05:48:17.337Z,64.62
2017-09-19T05:49:17.030Z,64.62
2017-09-19T05:50:17.130Z,64.24
2017-09-19T05:51:17.085Z,64.53
2017-09-19T05:52:17.404Z,64.72
2017-09-19T05:53:17.091Z,64.72
2017-09-19T05:54:17.107Z,64.81
2017-09-19T05:55:17.450Z,64.62
2017-09-19T05:56:17.474Z,64.85
2017-09-19T05:57:17.157Z,64.56
2017-09-19T05:58:17.495Z,64.28
2017-09-19T05:59:17.193Z,64.65
2017-09-19T06:00:17.535Z,64.75
2017-09-19T06:01:17.544Z,64.72
2017-09-19T06:02:17.563Z,64.28
2017-09-19T06:03:17.581Z,64.65
2017-09-19T06:04:17.267Z,64.75
2017-09-19T06:05:17.285Z,64.75
2017-09-19T06:06:17.631Z,64.65
2017-09-19T06:07:17.647Z,64.56
2017-09-19T06:08:17.333Z,64.94
2017-09-19T06:09:17.352Z,65.04
2017-09-19T06:10:17.695Z,64.18
2017-09-19T06:11:17.715Z,65.23
2017-09-19T06:12:17.403Z,65.52
2017-09-19T06:13:17.740Z,65.52
2017-09-19T06:14:17.440Z,65.42
2017-09-19T06:15:17.776Z,65.52
2017-09-19T06:16:17.470Z,65.04
2017-09-19T06:17:17.804Z,65.04
2017-09-19T06:18:17.827Z,65.13
2017-09-19T06:19:17.846Z,65.13
2017-09-19T06:20:17.533Z,64.75
2017-09-19T06:21:17.549Z,65.52
2017-09-19T06:22:17.565Z,65.23
2017-09-19T06:23:17.584Z,64.85
2017-09-19T06:24:17.930Z,64.4
2017-09-19T06:25:17.945Z,64.65
2017-09-19T06:26:17.631Z,64.69
2017-09-19T06:27:17.970Z,65.52
2017-09-19T06:28:17.667Z,65.55
2017-09-19T06:29:18.004Z,65.26
2017-09-19T06:30:18.029Z,65.17
2017-09-19T06:31:18.037Z,64.5
2017-09-19T06:32:17.734Z,64.69
2017-09-19T06:33:18.076Z,64.69
2017-09-19T06:34:18.094Z,64.4
2017-09-19T06:35:18.108Z,64.69
2017-09-19T06:36:18.222Z,64.88
2017-09-19T06:37:18.247Z,64.5
2017-09-19T06:38:17.835Z,64.5
2017-09-19T06:39:18.169Z,64.59
2017-09-19T06:40:18.246Z,64.78
2017-09-19T06:41:17.880Z,64.69
2017-09-19T06:42:17.900Z,64.69
2017-09-19T06:43:18.248Z,64.62
2017-09-19T06:44:17.930Z,64.62
2017-09-19T06:45:18.380Z,64.62
2017-09-19T06:46:18.378Z,64.81
2017-09-19T06:47:17.994Z,64.62
2017-09-19T06:48:18.432Z,64.72
2017-09-19T06:49:18.010Z,64.72
2017-09-19T06:50:18.413Z,64.25
2017-09-19T06:51:18.051Z,64.43
2017-09-19T06:52:18.518Z,64.25
2017-09-19T06:53:18.529Z,64.34
2017-09-19T06:54:18.537Z,64.34
2017-09-19T06:55:18.235Z,64.34
2017-09-19T06:56:18.130Z,64.62
2017-09-19T06:57:18.475Z,64.62
2017-09-19T06:58:18.705Z,64.72
2017-09-19T06:59:18.513Z,64.25
2017-09-19T07:00:18.527Z,64.62
2017-09-19T07:01:18.534Z,64.53
2017-09-19T07:02:18.715Z,64.37
2017-09-19T07:03:18.709Z,64.37
2017-09-19T07:04:18.393Z,64.18
2017-09-19T07:05:18.711Z,64.28
2017-09-19T07:06:18.301Z,64.37
2017-09-19T07:07:18.851Z,64.47
2017-09-19T07:08:18.338Z,64.18
2017-09-19T07:09:18.857Z,64.37
2017-09-19T07:10:18.372Z,63.89
2017-09-19T07:11:18.896Z,64.18
2017-09-19T07:12:18.819Z,63.99
2017-09-19T07:13:18.543Z,63.99
2017-09-19T07:14:18.855Z,63.42
2017-09-19T07:15:18.785Z,64.09
2017-09-19T07:16:18.795Z,63.99
2017-09-19T07:17:18.812Z,63.6
2017-09-19T07:18:18.833Z,63.6
2017-09-19T07:19:18.524Z,63.6
2017-09-19T07:20:18.913Z,63.83
2017-09-19T07:21:18.888Z,63.73
2017-09-19T07:22:18.901Z,63.64
2017-09-19T07:23:18.916Z,63.83
2017-09-19T07:24:18.934Z,64.02
2017-09-19T07:25:18.953Z,63.45
2017-09-19T07:26:18.757Z,63.45
2017-09-19T07:27:18.990Z,63.54
2017-09-19T07:28:19.005Z,63.16
2017-09-19T07:29:18.695Z,63.35
2017-09-19T07:30:19.035Z,62.78
2017-09-19T07:31:18.821Z,62.78
2017-09-19T07:32:18.751Z,62.68
2017-09-19T07:33:18.766Z,62.49
2017-09-19T07:34:19.104Z,62.87
2017-09-19T07:35:19.121Z,62.68
2017-09-19T07:36:19.147Z,62.87
2017-09-19T07:37:19.162Z,62.78
2017-09-19T07:38:19.180Z,62.78
2017-09-19T07:39:18.871Z,63.07
2017-09-19T07:40:18.891Z,62.78
2017-09-19T07:41:19.227Z,62.78
2017-09-19T07:42:18.925Z,62.78
2017-09-19T07:43:18.947Z,63.07
2017-09-19T07:44:18.962Z,62.78
2017-09-19T07:45:19.481Z,62.49
2017-09-19T07:46:19.454Z,62.52
2017-09-19T07:47:19.340Z,62.52
2017-09-19T07:48:19.032Z,62.62
2017-09-19T07:49:19.047Z,62.81
2017-09-19T07:50:19.063Z,62.24
2017-09-19T07:51:19.403Z,62.52
2017-09-19T07:52:19.431Z,62.71
2017-09-19T07:53:19.446Z,62.52
2017-09-19T07:54:19.140Z,62.24
2017-09-19T07:55:19.484Z,62.52
2017-09-19T07:56:19.496Z,62.71
2017-09-19T07:57:19.191Z,62.81
2017-09-19T07:58:19.203Z,62.81
2017-09-19T07:59:19.222Z,62.81
2017-09-19T08:00:19.241Z,62.52
2017-09-19T08:01:19.259Z,63
2017-09-19T08:02:19.276Z,62.24
2017-09-19T08:03:19.297Z,62.24
2017-09-19T08:04:19.311Z,62.14
2017-09-19T08:05:19.651Z,62.14
2017-09-19T08:06:19.677Z,62.14
2017-09-19T08:07:19.692Z,61.85
2017-09-19T08:08:19.711Z,62.08
2017-09-19T08:09:19.722Z,61.98
2017-09-19T08:10:19.447Z,61.79
2017-09-19T08:11:19.768Z,62.17
2017-09-19T08:12:19.782Z,61.69
2017-09-19T08:13:19.794Z,61.98
2017-09-19T08:14:19.493Z,61.98
2017-09-19T08:15:19.549Z,61.6
2017-09-19T08:16:19.530Z,61.6
2017-09-19T08:17:19.543Z,61.31
2017-09-19T08:18:19.567Z,61.02
2017-09-19T08:19:19.911Z,61.12
2017-09-19T08:20:19.916Z,61.12
2017-09-19T08:21:19.940Z,61.22
2017-09-19T08:22:19.958Z,61.02
2017-09-19T08:23:19.653Z,61.31
2017-09-19T08:24:19.671Z,61.22
2017-09-19T08:25:20.014Z,61.25
2017-09-19T08:26:19.705Z,60.67
2017-09-19T08:27:19.726Z,61.15
2017-09-19T08:28:19.742Z,60.96
2017-09-19T08:29:20.086Z,60.67
2017-09-19T08:30:20.106Z,60.96
2017-09-19T08:31:20.114Z,60.19
2017-09-19T08:32:19.816Z,60.58
2017-09-19T08:33:20.162Z,60.67
2017-09-19T08:34:20.172Z,60.38
2017-09-19T08:35:20.194Z,60.29
2017-09-19T08:36:20.210Z,60.51
2017-09-19T08:37:19.908Z,60.8
2017-09-19T08:38:20.250Z,61.15
2017-09-19T08:39:20.270Z,60.89
2017-09-19T08:40:20.285Z,60.99
2017-09-19T08:41:20.306Z,60.61
2017-09-19T08:42:20.328Z,60.8
2017-09-19T08:43:20.338Z,60.41
2017-09-19T08:44:20.356Z,60.41
2017-09-19T08:45:20.396Z,60.25
2017-09-19T08:46:20.076Z,60.13
2017-09-19T08:47:20.410Z,59.68
2017-09-19T08:48:20.441Z,59.48
2017-09-19T08:49:20.130Z,59.48
2017-09-19T08:50:20.146Z,59.68
2017-09-19T08:51:20.166Z,59.01
2017-09-19T08:52:20.504Z,59.3
2017-09-19T08:53:20.202Z,58.72
2017-09-19T08:54:20.215Z,58.72
2017-09-19T08:55:20.562Z,58.44
2017-09-19T08:56:20.256Z,58.91
2017-09-19T08:57:20.600Z,58.81
2017-09-19T08:58:20.297Z,58.72
2017-09-19T08:59:20.636Z,58.81
2017-09-19T09:00:20.651Z,58.56
2017-09-19T09:01:20.678Z,58.46
2017-09-19T09:02:20.363Z,58.27
2017-09-19T09:03:20.713Z,58.17
2017-09-19T09:04:20.405Z,58.37
2017-09-19T09:05:20.428Z,58.17
2017-09-19T09:06:20.440Z,57.41
2017-09-19T09:07:20.459Z,57.21
2017-09-19T09:08:20.809Z,56.83
2017-09-19T09:09:20.817Z,57.21
2017-09-19T09:10:20.840Z,57.03
2017-09-19T09:11:20.858Z,57.5
2017-09-19T09:12:20.875Z,57.5
2017-09-19T09:13:20.894Z,57.79
2017-09-19T09:14:20.598Z,57.6
2017-09-19T09:15:20.615Z,57.53
2017-09-19T09:16:20.955Z,57.34
2017-09-19T09:17:20.649Z,56.96
2017-09-19T09:18:20.994Z,57.43
2017-09-19T09:19:20.687Z,57.63
2017-09-19T09:20:21.024Z,56.67
2017-09-19T09:21:21.050Z,57.06
2017-09-19T09:22:20.744Z,56.76
2017-09-19T09:23:20.760Z,56.29
2017-09-19T09:24:21.132Z,55.74
2017-09-19T09:25:21.133Z,55.64
2017-09-19T09:26:20.853Z,55.55
2017-09-19T09:27:21.230Z,55.83
2017-09-19T09:28:20.930Z,55.45
2017-09-19T09:29:20.958Z,55.83
2017-09-19T09:30:20.893Z,55.55
2017-09-19T09:31:21.240Z,55.16
2017-09-19T09:32:21.262Z,55.55
2017-09-19T09:33:21.276Z,55.35
2017-09-19T09:34:20.976Z,55.64
2017-09-19T09:35:21.319Z,55.57
2017-09-19T09:36:21.010Z,55.67
2017-09-19T09:37:21.358Z,55.19
2017-09-19T09:38:21.378Z,55.47
2017-09-19T09:39:21.389Z,55.67
2017-09-19T09:40:21.408Z,55.67
2017-09-19T09:41:21.436Z,55.77
2017-09-19T09:42:21.459Z,55.22
2017-09-19T09:43:21.471Z,55.32
2017-09-19T09:44:21.499Z,55.32
2017-09-19T09:45:21.188Z,54.83
2017-09-19T09:46:21.535Z,54.45
2017-09-19T09:47:21.225Z,54.55
2017-09-19T09:48:21.573Z,53.97
2017-09-19T09:49:21.604Z,53.68
2017-09-19T09:50:21.342Z,53.3
2017-09-19T09:51:21.303Z,53.03
2017-09-19T09:52:21.651Z,52.75
2017-09-19T09:53:21.666Z,52.75
2017-09-19T09:54:21.694Z,52.46
2017-09-19T09:55:21.384Z,52.36
2017-09-19T09:56:21.404Z,52.75
2017-09-19T09:57:21.421Z,52.75
2017-09-19T09:58:21.448Z,52.75
2017-09-19T09:59:21.465Z,52.36
2017-09-19T10:00:21.805Z,52.48
2017-09-19T10:01:21.834Z,52.48
2017-09-19T10:02:21.846Z,52.58
2017-09-19T10:03:21.871Z,52
2017-09-19T10:04:21.566Z,52.2
2017-09-19T10:05:21.909Z,52.29
2017-09-19T10:06:21.602Z,51.81
2017-09-19T10:07:21.622Z,51.17
2017-09-19T10:08:21.965Z,50.97
2017-09-19T10:09:21.664Z,51.17
2017-09-19T10:10:21.686Z,50.68
2017-09-19T10:11:22.031Z,50.4
2017-09-19T10:12:22.047Z,50.1
2017-09-19T10:13:22.078Z,50.4
2017-09-19T10:14:21.770Z,50.87
2017-09-19T10:15:22.112Z,50.78
2017-09-19T10:16:21.813Z,50.23
2017-09-19T10:17:22.160Z,50.13
2017-09-19T10:18:21.850Z,50.04
2017-09-19T10:19:22.193Z,49.65
2017-09-19T10:20:22.211Z,49.84
2017-09-19T10:21:22.238Z,49.46
2017-09-19T10:22:21.931Z,49.48
2017-09-19T10:23:21.953Z,48.88
2017-09-19T10:24:22.297Z,48.52
2017-09-19T10:25:21.997Z,48.43
2017-09-19T10:26:22.341Z,47.94
2017-09-19T10:27:22.362Z,47.46
2017-09-19T10:28:22.053Z,47.27
2017-09-19T10:29:22.404Z,47.08
2017-09-19T10:30:22.426Z,47.17
2017-09-19T10:31:22.439Z,47.08
2017-09-19T10:32:22.463Z,47.19
2017-09-19T10:33:22.164Z,47.1
2017-09-19T10:34:22.512Z,46.52
2017-09-19T10:35:22.203Z,46.62
2017-09-19T10:36:22.225Z,46.52
2017-09-19T10:37:22.568Z,46.71
2017-09-19T10:38:22.266Z,46.62
2017-09-19T10:39:22.288Z,46.14
2017-09-19T10:40:22.311Z,46.15
2017-09-19T10:41:22.339Z,46.15
2017-09-19T10:42:22.356Z,46.35
2017-09-19T10:43:22.375Z,46.15
2017-09-19T10:44:22.395Z,46.15
2017-09-19T10:45:22.746Z,45.87
2017-09-19T10:46:22.439Z,45.87
2017-09-19T10:47:22.456Z,45.97
2017-09-19T10:48:22.807Z,45.58
2017-09-19T10:49:22.502Z,45.58
2017-09-19T10:50:22.847Z,45.48
2017-09-19T10:51:22.548Z,45.68
2017-09-19T10:52:22.897Z,45.48
2017-09-19T10:53:22.910Z,45.58
2017-09-19T10:54:22.938Z,45.58
2017-09-19T10:55:22.951Z,45.51
2017-09-19T10:56:22.976Z,45.51
2017-09-19T10:57:22.681Z,45.6
2017-09-19T10:58:23.034Z,45.6
2017-09-19T10:59:23.045Z,45.41
2017-09-19T11:00:22.739Z,45.51
2017-09-19T11:01:22.886Z,45.12
2017-09-19T11:02:23.349Z,44.83
2017-09-19T11:03:22.932Z,44.64
2017-09-19T11:04:23.274Z,44.54
2017-09-19T11:05:22.977Z,44.35
2017-09-19T11:06:23.010Z,44.35
2017-09-19T11:07:23.221Z,43.67
2017-09-19T11:08:22.917Z,43.87
2017-09-19T11:09:23.389Z,43.87
2017-09-19T11:10:23.374Z,43.67
2017-09-19T11:11:23.491Z,43.31
2017-09-19T11:12:23.009Z,42.9
2017-09-19T11:13:23.360Z,42.93
2017-09-19T11:14:23.053Z,42.35
2017-09-19T11:15:23.504Z,42.54
2017-09-19T11:16:23.100Z,42.35
2017-09-19T11:17:23.135Z,41.96
2017-09-19T11:18:23.269Z,41.86
2017-09-19T11:19:23.490Z,41.57
2017-09-19T11:20:23.178Z,41.3
2017-09-19T11:21:23.531Z,40.82
2017-09-19T11:22:23.643Z,41.19
2017-09-19T11:23:23.247Z,40.8
2017-09-19T11:24:23.595Z,40.7
2017-09-19T11:25:23.310Z,40.51
2017-09-19T11:26:23.657Z,40.8
2017-09-19T11:27:23.665Z,40.12
2017-09-19T11:28:23.684Z,40.15
2017-09-19T11:29:23.406Z,39.84
2017-09-19T11:30:23.407Z,39.74
2017-09-19T11:31:23.431Z,39.54
2017-09-19T11:32:23.489Z,40.15
2017-09-19T11:33:23.802Z,39.66
2017-09-19T11:34:23.824Z,39.95
2017-09-19T11:35:23.844Z,39.95
2017-09-19T11:36:23.876Z,39.76
2017-09-19T11:37:23.566Z,39.66
2017-09-19T11:38:23.595Z,39.57
2017-09-19T11:39:23.628Z,39.37
2017-09-19T11:40:23.983Z,39.18
2017-09-19T11:41:23.655Z,39.09
2017-09-19T11:42:23.772Z,39.18
2017-09-19T11:43:24.030Z,38.89
2017-09-19T11:44:24.056Z,38.99
2017-09-19T11:45:23.748Z,38.79
2017-09-19T11:46:23.827Z,38.7
2017-09-19T11:47:24.119Z,38.99
2017-09-19T11:48:24.141Z,39.28
2017-09-19T11:49:24.250Z,39.28
2017-09-19T11:50:23.868Z,39.18
2017-09-19T11:51:24.005Z,39.28
2017-09-19T11:52:24.232Z,39.28
2017-09-19T11:53:24.256Z,39.18
2017-09-19T11:54:23.974Z,38.89
2017-09-19T11:55:23.980Z,38.7
2017-09-19T11:56:24.325Z,38.99
2017-09-19T11:57:24.027Z,39.18
2017-09-19T11:58:24.378Z,39.28
2017-09-19T11:59:24.400Z,39.28
2017-09-19T12:00:24.096Z,39.47
2017-09-19T12:01:24.129Z,39.18
2017-09-19T12:02:24.470Z,39.18
2017-09-19T12:03:24.491Z,38.99
2017-09-19T12:04:24.509Z,38.99
2017-09-19T12:05:24.216Z,38.89
2017-09-19T12:06:24.556Z,38.89
2017-09-19T12:07:24.268Z,38.89
2017-09-19T12:08:24.603Z,38.99
2017-09-19T12:09:24.629Z,39.28
2017-09-19T12:10:24.329Z,39.28
2017-09-19T12:11:24.675Z,38.99
2017-09-19T12:12:24.375Z,38.99
2017-09-19T12:13:24.404Z,39.18
2017-09-19T12:14:24.438Z,39.18
2017-09-19T12:15:24.769Z,39.11
2017-09-19T12:16:24.517Z,38.81
2017-09-19T12:17:24.829Z,39.11
2017-09-19T12:18:24.519Z,39.11
2017-09-19T12:19:24.550Z,39.11
2017-09-19T12:20:24.889Z,39.2
2017-09-19T12:21:24.911Z,38.91
2017-09-19T12:22:24.935Z,38.71
2017-09-19T12:23:24.652Z,38.91
2017-09-19T12:24:24.980Z,38.71
2017-09-19T12:25:24.997Z,39.01
2017-09-19T12:26:24.706Z,39.01
2017-09-19T12:27:24.735Z,38.91
2017-09-19T12:28:24.772Z,38.91
2017-09-19T12:29:25.098Z,39.11
2017-09-19T12:30:25.117Z,39.22
2017-09-19T12:31:25.148Z,39.22
2017-09-19T12:32:25.195Z,39.22
2017-09-19T12:33:25.280Z,38.93
2017-09-19T12:34:25.212Z,39.32
2017-09-19T12:35:24.916Z,39.41
2017-09-19T12:36:24.939Z,39.61
2017-09-19T12:37:25.324Z,38.83
2017-09-19T12:38:25.317Z,39.22
2017-09-19T12:39:25.328Z,39.22
2017-09-19T12:40:25.353Z,39.32
2017-09-19T12:41:25.072Z,39.03
2017-09-19T12:42:25.171Z,39.51
2017-09-19T12:43:25.108Z,39.51
2017-09-19T12:44:25.141Z,39.32
2017-09-19T12:45:25.158Z,39.03
2017-09-19T12:46:25.179Z,38.93
2017-09-19T12:47:25.201Z,38.83
2017-09-19T12:48:25.547Z,38.93
2017-09-19T12:49:25.248Z,38.93
2017-09-19T12:50:25.272Z,38.54
2017-09-19T12:51:25.629Z,38.62
2017-09-19T12:52:25.320Z,38.83
2017-09-19T12:53:25.344Z,38.81
2017-09-19T12:54:25.687Z,38.53
2017-09-19T12:55:25.713Z,38.62